Time;durP1;ratioP1;P1;durP2;ratioP2;P2;SDS_P1;SDS_P2;PMS_P1;PMS_P2;Temp;Humidity;BMP_temperature;BMP_pressure;BME280_temperature;BME280_humidity;BME280_pressure;Samples;Min_cycle;Max_cycle;Signal;HPM_P1;HPM_P2
2022/11/07 00:01:22;;;;;;;431.90;389.75;;;;;;;5.81;100.00;98099.53;7388145;19;20070;-52
2022/11/07 00:04:00;;;;;;;441.98;399.10;;;;;;;5.63;100.00;98104.69;7389664;19;20439;-52
2022/11/07 00:06:36;;;;;;;457.40;413.75;;;;;;;5.66;100.00;98102.78;7386986;19;20379;-51
2022/11/07 00:09:12;;;;;;;460.27;415.83;;;;;;;5.51;100.00;98103.44;7387835;19;20469;-49
2022/11/07 00:11:46;;;;;;;470.60;424.77;;;;;;;5.54;100.00;98108.53;7385738;19;20728;-51
2022/11/07 00:14:21;;;;;;;425.23;383.15;;;;;;;5.59;100.00;98108.34;7387786;19;20470;-51
2022/11/07 00:16:57;;;;;;;442.92;399.42;;;;;;;5.69;100.00;98110.50;7382308;19;20011;-52
2022/11/07 00:19:31;;;;;;;435.83;393.27;;;;;;;5.68;100.00;98110.53;7386865;19;20495;-53
2022/11/07 00:22:04;;;;;;;433.55;390.50;;;;;;;5.73;100.00;98112.06;7388980;19;20082;-51
2022/11/07 00:24:41;;;;;;;453.63;408.88;;;;;;;5.81;100.00;98120.41;7386576;19;20354;-48
2022/11/07 00:27:15;;;;;;;442.38;399.25;;;;;;;5.75;100.00;98120.69;7384814;19;20010;-48
2022/11/07 00:29:48;;;;;;;442.70;398.63;;;;;;;5.73;100.00;98122.47;7382354;19;20021;-48
2022/11/07 00:32:22;;;;;;;428.45;386.10;;;;;;;5.88;100.00;98115.78;7388332;19;20086;-47
2022/11/07 00:34:59;;;;;;;425.48;383.05;;;;;;;5.85;100.00;98113.31;7387894;19;20022;-58
2022/11/07 00:37:33;;;;;;;430.50;388.15;;;;;;;5.88;100.00;98111.41;7387711;19;20018;-47
2022/11/07 00:40:10;;;;;;;436.58;393.52;;;;;;;5.94;100.00;98118.13;7386244;19;20466;-47
2022/11/07 00:42:44;;;;;;;460.98;415.67;;;;;;;6.13;100.00;98114.63;7383897;19;20010;-48
2022/11/07 00:45:17;;;;;;;455.20;411.30;;;;;;;5.90;100.00;98112.19;7388457;19;20021;-49
2022/11/07 00:47:51;;;;;;;430.13;387.98;;;;;;;5.82;100.00;98109.06;7381238;19;20017;-57
2022/11/07 00:50:25;;;;;;;429.70;387.77;;;;;;;5.98;100.00;98112.69;7388361;19;20014;-48
2022/11/07 00:52:59;;;;;;;425.73;383.95;;;;;;;5.82;100.00;98113.44;7387602;19;20010;-47
2022/11/07 00:55:37;;;;;;;435.92;392.08;;;;;;;5.96;100.00;98105.84;7382365;19;20018;-48
2022/11/07 00:58:10;;;;;;;425.85;383.80;;;;;;;5.81;100.00;98106.53;7385228;19;20014;-48
2022/11/07 01:00:44;;;;;;;455.75;411.00;;;;;;;5.90;100.00;98106.13;7380332;19;20028;-58
2022/11/07 01:06:05;;;;;;;455.80;411.30;;;;;;;6.15;100.00;98111.97;7381222;19;20018;-53
2022/11/07 01:08:39;;;;;;;429.58;386.88;;;;;;;6.07;100.00;98108.84;7384410;19;20370;-50
2022/11/07 01:11:15;;;;;;;419.77;377.80;;;;;;;6.11;100.00;98110.41;7387352;19;20517;-48
2022/11/07 01:13:49;;;;;;;430.67;387.20;;;;;;;5.99;100.00;98101.34;7384834;19;20029;-48
2022/11/07 01:16:23;;;;;;;424.88;381.98;;;;;;;6.03;100.00;98102.06;7383492;19;20697;-48
2022/11/07 01:18:56;;;;;;;466.25;420.90;;;;;;;6.15;100.00;98096.31;7382439;19;20010;-50
2022/11/07 01:21:30;;;;;;;456.13;412.10;;;;;;;6.36;100.00;98098.81;7388163;19;20036;-49
2022/11/07 01:24:04;;;;;;;457.52;413.85;;;;;;;6.63;100.00;98083.66;7386778;19;20856;-48
2022/11/07 01:26:42;;;;;;;459.13;413.92;;;;;;;6.52;100.00;98085.91;7384565;19;20466;-47
2022/11/07 01:29:16;;;;;;;418.60;376.25;;;;;;;5.93;100.00;98079.88;7386420;19;20025;-47
2022/11/07 01:31:50;;;;;;;438.30;394.38;;;;;;;6.15;100.00;98075.41;7381315;19;20469;-47
2022/11/07 01:34:24;;;;;;;433.65;391.02;;;;;;;6.26;100.00;98073.19;7385909;19;20014;-47
2022/11/07 01:36:57;;;;;;;426.67;384.73;;;;;;;5.97;100.00;98071.00;7388058;19;20010;-49
2022/11/07 01:39:31;;;;;;;467.58;422.50;;;;;;;6.11;100.00;98072.06;7385982;19;20841;-48
2022/11/07 01:42:07;;;;;;;452.20;408.15;;;;;;;6.14;100.00;98058.88;7387392;19;20014;-47
2022/11/07 01:44:59;;;;;;;462.15;416.70;;;;;;;6.04;100.00;98047.19;7380763;19;20011;-48
2022/11/07 01:47:37;;;;;;;451.48;407.42;;;;;;;5.91;100.00;98039.94;7382977;19;20074;-52
2022/11/07 01:50:13;;;;;;;431.52;388.05;;;;;;;5.99;100.00;98045.69;7383389;19;20007;-48
2022/11/07 01:52:51;;;;;;;429.40;386.13;;;;;;;6.27;100.00;98044.41;7386297;19;20011;-49
2022/11/07 01:55:26;;;;;;;;;;;;;;;5.97;100.00;98035.31;7380722;19;20086;-47
2022/11/07 01:58:06;;;;;;;426.83;383.75;;;;;;;6.05;100.00;98040.19;7384309;19;19922;-47
2022/11/07 02:00:40;;;;;;;444.23;399.17;;;;;;;6.20;100.00;98040.34;7378815;19;20021;-47
2022/11/07 02:03:16;;;;;;;462.52;417.90;;;;;;;6.33;100.00;98040.69;7385075;19;20015;-48
2022/11/07 02:05:55;;;;;;;456.88;412.75;;;;;;;5.96;100.00;98028.38;7384603;19;20010;-47
2022/11/07 02:08:30;;;;;;;460.80;416.33;;;;;;;6.16;100.00;98033.56;7383043;19;20031;-48
2022/11/07 02:11:04;;;;;;;438.80;395.75;;;;;;;6.16;100.00;98027.50;7385136;19;20014;-49
2022/11/07 02:13:40;;;;;;;449.48;404.90;;;;;;;6.01;100.00;98020.34;7380158;19;20010;-47
2022/11/07 02:16:14;;;;;;;443.63;401.17;;;;;;;5.86;100.00;98015.81;7380638;19;20017;-48
2022/11/07 02:18:51;;;;;;;458.38;414.17;;;;;;;5.91;100.00;98021.69;7379695;19;20018;-50
2022/11/07 02:21:35;;;;;;;436.98;394.80;;;;;;;5.90;100.00;98027.81;7394277;19;20069;-48
2022/11/07 02:24:28;;;;;;;455.77;411.13;;;;;;;5.84;100.00;98018.50;7386610;19;20014;-53
2022/11/07 02:27:04;;;;;;;463.20;419.40;;;;;;;5.87;100.00;98013.16;7391084;19;20028;-47
2022/11/07 02:29:40;;;;;;;475.77;430.20;;;;;;;5.71;100.00;98009.53;7382755;19;20027;-53
2022/11/07 02:32:16;;;;;;;431.52;388.80;;;;;;;5.74;100.00;98019.81;7391053;19;20090;-50
2022/11/07 02:34:50;;;;;;;425.40;382.27;;;;;;;5.80;100.00;98011.72;7384939;19;20013;-54
2022/11/07 02:37:30;;;;;;;430.75;388.05;;;;;;;5.89;100.00;98011.31;7389919;19;20011;-49
2022/11/07 02:40:10;;;;;;;430.40;387.88;;;;;;;5.77;100.00;98017.06;7390500;19;20011;-58
2022/11/07 02:42:45;;;;;;;437.60;394.65;;;;;;;5.94;100.00;98014.56;7389359;19;20036;-49
2022/11/07 02:45:27;;;;;;;455.02;411.33;;;;;;;5.92;100.00;98011.19;7390502;19;20355;-47
2022/11/07 02:48:01;;;;;;;451.25;407.52;;;;;;;6.00;100.00;97996.00;7388568;19;20014;-47
2022/11/07 02:50:36;;;;;;;449.05;405.00;;;;;;;5.73;100.00;97999.88;7390691;19;20038;-49
2022/11/07 02:53:09;;;;;;;451.08;405.58;;;;;;;5.92;100.00;97999.91;7384899;19;20336;-53
2022/11/07 02:55:45;;;;;;;423.10;380.17;;;;;;;6.03;100.00;98003.72;7388406;19;20042;-49
2022/11/07 02:58:20;;;;;;;424.95;381.98;;;;;;;6.11;100.00;98001.59;7384511;19;20014;-51
2022/11/07 03:00:53;;;;;;;429.40;386.10;;;;;;;6.00;100.00;97998.63;7388148;19;20023;-54
2022/11/07 03:03:27;;;;;;;418.80;375.58;;;;;;;6.11;100.00;97996.38;7388043;19;20498;-48
2022/11/07 03:06:01;;;;;;;460.85;415.10;;;;;;;5.99;100.00;97996.09;7385065;19;20417;-47
2022/11/07 03:08:35;;;;;;;445.60;401.17;;;;;;;5.91;100.00;97999.06;7388714;19;20010;-47
2022/11/07 03:11:13;;;;;;;453.23;408.63;;;;;;;5.98;100.00;98005.69;7384201;19;20011;-51
2022/11/07 03:13:47;;;;;;;445.77;401.80;;;;;;;5.90;100.00;98005.19;7389677;19;20383;-47
2022/11/07 03:16:22;;;;;;;423.63;380.58;;;;;;;5.77;100.00;97998.81;7384764;19;20038;-48
2022/11/07 03:18:56;;;;;;;435.02;391.10;;;;;;;5.86;100.00;98002.78;7386607;19;20010;-47
2022/11/07 03:21:35;;;;;;;428.85;385.88;;;;;;;5.83;100.00;98005.53;7387215;19;20514;-50
2022/11/07 03:24:09;;;;;;;438.25;394.02;;;;;;;5.80;100.00;98009.13;7384167;19;20040;-48
2022/11/07 03:26:45;;;;;;;452.23;408.67;;;;;;;5.75;100.00;98003.28;7389853;19;20011;-47
2022/11/07 03:29:19;;;;;;;453.27;408.55;;;;;;;5.87;100.00;98002.72;7386500;19;20010;-53
2022/11/07 03:31:52;;;;;;;449.23;405.27;;;;;;;6.00;100.00;98003.84;7386098;19;20014;-50
2022/11/07 03:34:26;;;;;;;459.42;415.27;;;;;;;5.82;100.00;98004.69;7389245;19;20010;-48
2022/11/07 03:36:59;;;;;;;440.48;396.05;;;;;;;6.04;100.00;98005.44;7381298;19;20022;-47
2022/11/07 03:39:33;;;;;;;441.88;398.85;;;;;;;5.95;100.00;98011.03;7390264;19;20037;-47
2022/11/07 03:42:09;;;;;;;432.52;389.13;;;;;;;5.94;100.00;98009.34;7386446;19;20011;-59
2022/11/07 03:44:43;;;;;;;421.98;379.92;;;;;;;5.96;100.00;98012.72;7389274;19;20011;-48
2022/11/07 03:47:17;;;;;;;455.55;411.80;;;;;;;5.98;100.00;98002.22;7387491;19;20011;-48
2022/11/07 03:49:51;;;;;;;477.75;431.65;;;;;;;5.89;100.00;98006.09;7383218;19;20107;-48
2022/11/07 03:52:24;;;;;;;460.85;417.13;;;;;;;6.05;100.00;97998.41;7388392;19;20017;-47
2022/11/07 03:54:58;;;;;;;466.90;422.60;;;;;;;5.75;100.00;97992.84;7383744;19;20082;-58
2022/11/07 03:57:34;;;;;;;445.23;402.38;;;;;;;5.90;100.00;97999.13;7387259;19;20014;-52
2022/11/07 04:00:08;;;;;;;433.92;390.90;;;;;;;5.84;100.00;97995.03;7386847;19;20082;-50
2022/11/07 04:02:48;;;;;;;435.17;392.27;;;;;;;5.82;100.00;97994.25;7388208;19;20973;-46
2022/11/07 04:05:21;;;;;;;439.30;396.25;;;;;;;5.80;100.00;97992.59;7386776;19;20014;-47
2022/11/07 04:07:55;;;;;;;449.50;404.80;;;;;;;5.77;100.00;97987.56;7382566;19;20007;-50
2022/11/07 04:10:29;;;;;;;450.63;406.58;;;;;;;5.80;100.00;97990.84;7388124;19;20015;-47
2022/11/07 04:18:37;;;;;;;;;;;;;;;5.51;100.00;97978.25;7382311;19;20039;-47
2022/11/07 04:21:11;;;;;;;426.58;383.98;;;;;;;5.47;100.00;97983.66;7388333;19;19966;-49
2022/11/07 04:23:45;;;;;;;419.98;378.42;;;;;;;5.40;100.00;97982.22;7387072;19;20017;-50
2022/11/07 04:29:13;;;;;;;430.20;387.88;;;;;;;5.60;100.00;97971.78;7379702;19;20017;-57
2022/11/07 04:31:46;;;;;;;450.65;406.80;;;;;;;5.73;100.00;97971.16;7383725;19;20015;-48
2022/11/07 04:34:22;;;;;;;460.45;416.10;;;;;;;5.69;100.00;97964.41;7382768;19;20340;-47
2022/11/07 04:36:55;;;;;;;466.60;421.20;;;;;;;5.66;100.00;97963.69;7381279;19;20010;-54
2022/11/07 04:39:29;;;;;;;461.55;417.38;;;;;;;5.71;100.00;97970.41;7383558;19;20536;-51
2022/11/07 04:42:03;;;;;;;446.38;401.85;;;;;;;5.71;100.00;97970.41;7377247;19;20153;-58
2022/11/07 04:44:39;;;;;;;451.75;408.30;;;;;;;5.73;100.00;97963.34;7383029;19;20040;-48
2022/11/07 04:47:13;;;;;;;445.00;402.25;;;;;;;5.70;100.00;97966.09;7382315;19;20363;-48
2022/11/07 04:49:46;;;;;;;450.95;406.45;;;;;;;5.86;100.00;97974.06;7379703;19;20463;-52
2022/11/07 04:52:20;;;;;;;459.77;415.15;;;;;;;5.92;100.00;97965.97;7382470;19;20010;-48
2022/11/07 04:54:53;;;;;;;481.00;435.35;;;;;;;5.76;100.00;97968.44;7377823;19;20011;-52
2022/11/07 04:57:27;;;;;;;479.02;433.73;;;;;;;5.77;100.00;97970.13;7382277;19;20014;-46
2022/11/07 05:00:03;;;;;;;458.48;413.33;;;;;;;5.88;100.00;97965.25;7380326;19;20015;-50
2022/11/07 05:02:36;;;;;;;460.73;416.10;;;;;;;5.81;100.00;97970.84;7379765;19;20312;-47
2022/11/07 05:05:14;;;;;;;450.63;406.63;;;;;;;5.78;100.00;97981.41;7384143;19;20021;-48
2022/11/07 05:07:48;;;;;;;465.05;419.45;;;;;;;5.94;100.00;97966.75;7381243;19;20016;-54
2022/11/07 05:10:24;;;;;;;444.52;400.65;;;;;;;5.66;100.00;97977.56;7387764;19;20010;-48
2022/11/07 05:13:01;;;;;;;460.13;415.27;;;;;;;5.72;100.00;97972.09;7384801;19;20028;-57
2022/11/07 05:15:38;;;;;;;491.08;443.83;;;;;;;5.77;100.00;97974.50;7384547;19;20462;-56
2022/11/07 05:18:12;;;;;;;473.27;426.33;;;;;;;5.79;100.00;97968.28;7384692;19;20034;-48
2022/11/07 05:20:46;;;;;;;492.02;442.42;;;;;;;5.88;100.00;97972.25;7380666;19;20010;-47
2022/11/07 05:23:20;;;;;;;490.23;441.98;;;;;;;5.66;100.00;97972.34;7388133;19;20018;-47
2022/11/07 05:25:56;;;;;;;479.67;432.63;;;;;;;5.86;100.00;97971.47;7380974;19;20329;-57
2022/11/07 05:28:31;;;;;;;475.25;429.00;;;;;;;5.91;100.00;97978.16;7384633;19;20010;-46
2022/11/07 05:31:09;;;;;;;474.70;428.05;;;;;;;5.84;100.00;97983.72;7386088;19;20087;-47
2022/11/07 05:33:43;;;;;;;471.88;426.73;;;;;;;5.92;100.00;97985.06;7384070;19;20031;-51
2022/11/07 05:36:18;;;;;;;489.45;441.88;;;;;;;5.87;100.00;97992.28;7383433;19;20028;-51
2022/11/07 05:38:54;;;;;;;493.13;443.77;;;;;;;5.48;100.00;98004.44;7380533;19;20006;-47
2022/11/07 05:41:28;;;;;;;475.25;427.30;;;;;;;5.77;100.00;97998.00;7382889;19;20496;-48
2022/11/07 05:44:02;;;;;;;484.55;436.45;;;;;;;5.80;100.00;97998.69;7380475;19;20010;-58
2022/11/07 05:46:38;;;;;;;469.20;422.42;;;;;;;5.76;100.00;98004.94;7376194;19;20018;-47
2022/11/07 05:49:12;;;;;;;467.90;421.02;;;;;;;5.84;100.00;98002.00;7379203;19;20010;-55
2022/11/07 05:51:46;;;;;;;484.95;435.98;;;;;;;5.95;100.00;98005.81;7376235;19;20019;-49
2022/11/07 05:54:19;;;;;;;474.08;426.73;;;;;;;5.94;100.00;98011.09;7385865;19;20017;-48
2022/11/07 05:56:53;;;;;;;486.77;438.15;;;;;;;5.95;100.00;98008.44;7379532;19;20014;-57
2022/11/07 05:59:26;;;;;;;477.00;430.05;;;;;;;5.98;100.00;98003.09;7387957;19;20470;-49
2022/11/07 06:02:03;;;;;;;490.40;444.33;;;;;;;6.00;100.00;98016.88;7392404;19;20006;-47
2022/11/07 06:04:37;;;;;;;498.63;450.85;;;;;;;5.99;100.00;98022.22;7384336;19;20018;-48
2022/11/07 06:07:11;;;;;;;486.15;439.13;;;;;;;5.82;100.00;98022.97;7390501;19;20078;-48
2022/11/07 06:09:45;;;;;;;509.08;460.67;;;;;;;6.07;100.00;98020.09;7382863;19;20475;-56
2022/11/07 06:12:18;;;;;;;518.40;470.35;;;;;;;6.03;100.00;98031.59;7391126;19;20029;-52
2022/11/07 06:14:52;;;;;;;518.65;470.70;;;;;;;6.61;100.00;98028.00;7386709;19;20022;-53
2022/11/07 06:17:28;;;;;;;511.95;462.70;;;;;;;6.59;100.00;98035.91;7386309;19;20011;-50
2022/11/07 06:20:02;;;;;;;487.33;441.38;;;;;;;6.66;100.00;98042.53;7389259;19;20079;-49
2022/11/07 06:22:36;;;;;;;490.85;443.83;;;;;;;6.81;100.00;98033.97;7382320;19;20041;-49
2022/11/07 06:25:10;;;;;;;470.40;424.33;;;;;;;6.97;100.00;98037.56;7389194;19;20011;-46
2022/11/07 06:27:44;;;;;;;489.65;443.27;;;;;;;7.06;100.00;98038.88;7389094;19;20010;-46
2022/11/07 06:30:19;;;;;;;496.98;449.48;;;;;;;7.17;100.00;98044.44;7388560;19;20302;-48
2022/11/07 06:32:55;;;;;;;474.33;428.40;;;;;;;6.96;100.00;98035.84;7390567;19;20010;-47
2022/11/07 06:35:29;;;;;;;518.35;469.95;;;;;;;6.77;100.00;98048.09;7384583;19;20014;-47
2022/11/07 06:38:03;;;;;;;511.02;463.55;;;;;;;7.04;100.00;98045.94;7388957;19;20025;-48
2022/11/07 06:40:37;;;;;;;488.45;440.92;;;;;;;7.03;100.00;98050.31;7388802;19;20018;-47
2022/11/07 06:43:16;;;;;;;512.08;463.77;;;;;;;7.09;100.00;98062.25;7390647;19;20011;-49
2022/11/07 06:45:51;;;;;;;498.67;451.13;;;;;;;6.91;100.00;98048.31;7388930;19;20015;-48
2022/11/07 06:48:27;;;;;;;499.50;450.67;;;;;;;6.87;100.00;98052.00;7383234;19;20031;-49
2022/11/07 06:51:03;;;;;;;487.70;441.33;;;;;;;7.08;100.00;98037.03;7388580;19;20014;-50
2022/11/07 06:53:37;;;;;;;491.65;444.23;;;;;;;6.89;100.00;98047.53;7383374;19;20015;-50
2022/11/07 06:56:16;;;;;;;488.70;442.80;;;;;;;7.21;100.00;98045.97;7386155;19;20017;-49
2022/11/07 06:58:50;;;;;;;497.23;450.60;;;;;;;7.21;100.00;98044.19;7384462;19;20014;-51
2022/11/07 07:01:23;;;;;;;500.92;453.90;;;;;;;7.07;100.00;98037.97;7386306;19;20015;-48
2022/11/07 07:04:00;;;;;;;499.05;452.75;;;;;;;7.05;100.00;98040.66;7380711;19;20006;-47
2022/11/07 07:06:34;;;;;;;499.63;451.23;;;;;;;6.97;100.00;98037.56;7384030;19;20659;-52
2022/11/07 07:09:08;;;;;;;477.30;430.92;;;;;;;7.01;100.00;98039.09;7385553;19;20359;-47
2022/11/07 07:11:44;;;;;;;487.75;441.58;;;;;;;7.19;100.00;98050.44;7385172;19;20014;-57
2022/11/07 07:14:18;;;;;;;483.17;437.77;;;;;;;6.97;100.00;98042.78;7387791;19;20025;-49
2022/11/07 07:16:52;;;;;;;490.05;443.83;;;;;;;7.24;100.00;98051.88;7385984;19;20015;-50
2022/11/07 07:19:28;;;;;;;507.42;459.48;;;;;;;7.21;100.00;98048.59;7384500;19;20034;-52
2022/11/07 07:22:02;;;;;;;491.58;445.38;;;;;;;7.32;100.00;98047.13;7388130;19;20473;-49
2022/11/07 07:24:35;;;;;;;503.65;454.65;;;;;;;7.37;100.00;98047.75;7384066;19;20006;-48
2022/11/07 07:27:09;;;;;;;493.23;447.08;;;;;;;7.44;100.00;98040.44;7390065;19;20011;-48
2022/11/07 07:29:43;;;;;;;499.50;451.80;;;;;;;7.50;100.00;98046.22;7387692;19;20336;-49
2022/11/07 07:32:20;;;;;;;502.70;454.02;;;;;;;7.46;100.00;98042.06;7388206;19;20011;-54
2022/11/07 07:34:56;;;;;;;506.75;459.33;;;;;;;7.38;100.00;98053.81;7389460;19;20006;-49
2022/11/07 07:37:30;;;;;;;507.45;458.38;;;;;;;7.37;100.00;98053.00;7382346;19;20010;-53
2022/11/07 07:40:03;;;;;;;490.63;443.30;;;;;;;7.70;100.00;98051.28;7387786;19;20458;-48
2022/11/07 07:42:37;;;;;;;495.40;447.38;;;;;;;7.35;100.00;98069.66;7385235;19;20017;-51
2022/11/07 07:45:13;;;;;;;493.98;446.40;;;;;;;7.73;100.00;98056.34;7389473;19;20524;-48
2022/11/07 07:47:47;;;;;;;491.08;443.13;;;;;;;7.69;100.00;98053.97;7389473;19;20018;-48
2022/11/07 07:50:24;;;;;;;505.70;456.38;;;;;;;7.84;100.00;98053.19;7382006;19;20006;-48
2022/11/07 07:53:03;;;;;;;495.85;448.45;;;;;;;7.55;100.00;98057.28;7387473;19;20038;-53
2022/11/07 07:55:39;;;;;;;500.33;451.75;;;;;;;7.59;100.00;98056.22;7380324;19;20497;-49
2022/11/07 07:58:13;;;;;;;501.02;451.83;;;;;;;7.79;100.00;98052.56;7386468;19;20014;-49
2022/11/07 08:00:47;;;;;;;504.80;456.45;;;;;;;7.56;100.00;98060.75;7386718;19;20018;-48
2022/11/07 08:03:21;;;;;;;508.20;459.02;;;;;;;7.79;100.00;98063.03;7385675;19;20014;-49
2022/11/07 08:06:04;;;;;;;522.03;472.00;;;;;;;7.76;100.00;98058.81;7383583;19;20022;-50
2022/11/07 08:08:38;;;;;;;505.73;455.35;;;;;;;7.81;100.00;98048.97;7383832;19;20377;-50
2022/11/07 08:11:19;;;;;;;504.38;455.38;;;;;;;7.91;100.00;98065.88;7386025;19;20011;-50
2022/11/07 08:13:53;;;;;;;510.05;460.27;;;;;;;8.07;100.00;98051.09;7382675;19;20031;-48
2022/11/07 08:16:29;;;;;;;476.73;429.23;;;;;;;8.01;100.00;98050.53;7386428;19;19998;-51
2022/11/07 08:19:02;;;;;;;493.75;445.80;;;;;;;8.19;100.00;98042.59;7378998;19;20250;-58
2022/11/07 08:21:39;;;;;;;491.00;443.60;;;;;;;7.98;100.00;98048.91;7386531;19;20038;-49
2022/11/07 08:24:15;;;;;;;500.33;452.48;;;;;;;8.27;100.00;98044.78;7382321;19;20490;-49
2022/11/07 08:26:48;;;;;;;502.65;454.17;;;;;;;8.22;100.00;98047.66;7381888;19;20019;-49
2022/11/07 08:29:23;;;;;;;501.67;453.23;;;;;;;8.23;100.00;98045.88;7384232;19;20017;-49
2022/11/07 08:31:56;;;;;;;523.70;473.30;;;;;;;8.16;100.00;98039.28;7381624;19;21274;-56
2022/11/07 08:34:30;;;;;;;510.77;461.73;;;;;;;8.04;100.00;98042.50;7386677;19;20113;-50
2022/11/07 08:37:10;;;;;;;507.05;457.70;;;;;;;8.38;100.00;98046.84;7386438;19;20066;-48
2022/11/07 08:39:45;;;;;;;485.48;438.05;;;;;;;8.00;100.00;98062.78;7387441;19;20022;-49
2022/11/07 08:42:18;;;;;;;486.13;437.88;;;;;;;8.31;100.00;98065.50;7387160;19;20470;-50
2022/11/07 08:44:52;;;;;;;504.02;454.23;;;;;;;8.21;100.00;98072.16;7381937;19;20014;-51
2022/11/07 08:47:25;;;;;;;498.30;450.33;;;;;;;8.40;100.00;98074.66;7389071;19;20018;-51
2022/11/07 08:49:59;;;;;;;495.35;447.90;;;;;;;8.07;100.00;98073.81;7385459;19;20006;-49
2022/11/07 08:52:35;;;;;;;502.25;453.52;;;;;;;8.17;100.00;98088.13;7386564;19;20029;-49
2022/11/07 08:55:10;;;;;;;500.92;452.83;;;;;;;8.25;100.00;98083.34;7384860;19;20007;-50
2022/11/07 08:57:44;;;;;;;511.70;461.65;;;;;;;8.27;100.00;98077.06;7379391;19;20035;-49
2022/11/07 09:00:21;;;;;;;508.45;458.73;;;;;;;8.30;100.00;98083.91;7386659;19;20078;-49
2022/11/07 09:02:55;;;;;;;503.10;453.83;;;;;;;8.14;100.00;98083.91;7383191;19;20510;-59
2022/11/07 09:05:29;;;;;;;473.52;425.73;;;;;;;7.81;100.00;98090.84;7384088;19;20040;-51
2022/11/07 09:08:05;;;;;;;462.77;415.75;;;;;;;8.15;100.00;98079.50;7385944;19;20019;-52
2022/11/07 09:10:39;;;;;;;490.02;440.70;;;;;;;8.22;100.00;98086.97;7381526;19;20014;-52
2022/11/07 09:13:13;;;;;;;474.13;427.73;;;;;;;8.38;100.00;98079.97;7386164;19;20462;-47
2022/11/07 09:15:47;;;;;;;500.98;452.27;;;;;;;8.09;100.00;98085.06;7382652;19;20007;-59
2022/11/07 09:18:20;;;;;;;493.15;446.92;;;;;;;8.29;100.00;98080.47;7385967;19;20017;-49
2022/11/07 09:20:54;;;;;;;480.02;432.48;;;;;;;8.31;100.00;98081.22;7387465;19;20010;-50
2022/11/07 09:23:31;;;;;;;505.88;455.10;;;;;;;8.45;100.00;98077.03;7381467;19;20010;-48
2022/11/07 09:26:06;;;;;;;487.42;440.40;;;;;;;8.26;100.00;98077.16;7384845;19;20003;-49
2022/11/07 09:28:40;;;;;;;500.05;451.42;;;;;;;8.19;100.00;98084.50;7377527;19;20014;-48
2022/11/07 09:31:17;;;;;;;501.13;453.52;;;;;;;8.15;100.00;98079.50;7383562;19;20010;-56
2022/11/07 09:33:51;;;;;;;486.00;438.92;;;;;;;8.16;100.00;98087.28;7383413;19;20486;-55
2022/11/07 09:36:24;;;;;;;478.63;432.45;;;;;;;8.44;100.00;98084.03;7381985;19;20048;-48
2022/11/07 09:39:01;;;;;;;485.98;439.15;;;;;;;8.39;100.00;98073.78;7385656;19;20011;-48
2022/11/07 09:41:51;;;;;;;524.65;474.50;;;;;;;8.32;100.00;98076.84;7382430;19;20010;-49
2022/11/07 09:44:48;;;;;;;498.35;450.67;;;;;;;8.50;100.00;98072.38;7386568;19;20010;-52
2022/11/07 09:47:27;;;;;;;489.20;442.05;;;;;;;8.16;100.00;98082.03;7383010;19;20015;-51
2022/11/07 09:50:05;;;;;;;495.88;447.75;;;;;;;8.36;100.00;98081.81;7376108;19;20010;-50
2022/11/07 09:52:47;;;;;;;484.27;437.95;;;;;;;8.08;100.00;98084.22;7385416;19;20039;-50
2022/11/07 09:55:30;;;;;;;514.00;465.27;;;;;;;8.34;100.00;98086.31;7375800;19;20177;-56
2022/11/07 09:58:07;;;;;;;498.42;451.42;;;;;;;8.11;100.00;98088.44;7385950;19;20014;-49
2022/11/07 10:00:40;;;;;;;499.30;451.95;;;;;;;8.14;100.00;98089.16;7381280;19;20478;-57
2022/11/07 10:03:16;;;;;;;513.00;464.98;;;;;;;8.45;100.00;98087.50;7383726;19;20384;-50
2022/11/07 10:05:59;;;;;;;511.70;464.10;;;;;;;8.19;100.00;98089.75;7382884;19;20014;-53
2022/11/07 10:08:41;;;;;;;497.35;449.67;;;;;;;8.36;100.00;98086.22;7383805;19;20027;-53
2022/11/07 10:11:22;;;;;;;506.10;458.83;;;;;;;7.95;100.00;98092.75;7383936;19;20046;-52
2022/11/07 10:14:03;;;;;;;483.33;437.13;;;;;;;8.38;100.00;98085.22;7384662;19;20010;-51
2022/11/07 10:16:53;;;;;;;487.58;440.85;;;;;;;8.38;100.00;98088.78;7382150;19;20470;-59
2022/11/07 10:19:49;;;;;;;462.80;416.73;;;;;;;8.62;100.00;98085.66;7378331;19;20011;-48
2022/11/07 10:22:46;;;;;;;472.88;425.27;;;;;;;8.72;100.00;98075.53;7383140;19;20014;-49
2022/11/07 10:25:26;;;;;;;508.52;459.17;;;;;;;8.69;100.00;98083.56;7378383;19;20015;-48
2022/11/07 10:28:18;;;;;;;491.35;443.70;;;;;;;8.47;100.00;98086.50;7384106;19;20003;-48
2022/11/07 10:30:55;;;;;;;482.50;433.45;;;;;;;8.49;100.00;98078.56;7381579;19;20102;-55
2022/11/07 10:33:40;;;;;;;483.33;435.15;;;;;;;8.72;100.00;98080.78;7381694;19;20034;-52
2022/11/07 10:36:21;;;;;;;480.92;432.95;;;;;;;8.52;100.00;98084.47;7383654;19;20366;-50
2022/11/07 10:38:55;;;;;;;466.85;419.35;;;;;;;8.50;100.00;98081.09;7385727;19;20021;-52
2022/11/07 10:41:32;;;;;;;498.27;448.75;;;;;;;8.26;100.00;98082.38;7388665;19;20018;-51
2022/11/07 10:44:17;;;;;;;491.27;443.70;;;;;;;8.38;100.00;98087.84;7394378;19;20006;-49
2022/11/07 10:46:52;;;;;;;501.00;450.50;;;;;;;8.43;100.00;98091.03;7388352;19;20023;-51
2022/11/07 10:49:28;;;;;;;492.20;442.95;;;;;;;8.54;100.00;98087.00;7388985;19;20027;-48
2022/11/07 10:52:16;;;;;;;514.67;463.48;;;;;;;8.72;100.00;98096.50;7387573;19;20458;-48
2022/11/07 10:54:50;;;;;;;496.13;446.90;;;;;;;8.64;100.00;98103.94;7393210;19;20023;-50
2022/11/07 10:57:27;;;;;;;494.52;444.63;;;;;;;8.60;100.00;98084.88;7388444;19;20022;-49
2022/11/07 11:00:06;;;;;;;483.02;434.42;;;;;;;8.62;100.00;98085.66;7390930;19;20014;-48
2022/11/07 11:02:51;;;;;;;477.88;428.83;;;;;;;8.55;100.00;98083.44;7384193;19;20077;-53
2022/11/07 11:05:30;;;;;;;475.63;426.98;;;;;;;8.84;100.00;98080.94;7390178;19;20015;-51
2022/11/07 11:08:19;;;;;;;517.83;465.83;;;;;;;8.94;100.00;98082.13;7388177;19;20017;-50
2022/11/07 11:10:53;;;;;;;486.17;435.77;;;;;;;8.49;100.00;98075.94;7391597;19;20018;-48
2022/11/07 11:13:34;;;;;;;497.05;446.33;;;;;;;8.54;100.00;98092.25;7387714;19;20003;-47
2022/11/07 11:16:31;;;;;;;484.10;434.35;;;;;;;8.66;100.00;98092.44;7390973;19;20014;-48
2022/11/07 11:19:06;;;;;;;482.25;432.10;;;;;;;8.73;100.00;98083.31;7393136;19;20011;-48
2022/11/07 11:21:50;;;;;;;493.10;442.40;;;;;;;8.95;100.00;98085.59;7392306;19;20550;-50
2022/11/07 11:24:39;;;;;;;503.80;451.92;;;;;;;8.95;100.00;98090.84;7393851;19;20034;-51
2022/11/07 11:27:19;;;;;;;484.65;434.23;;;;;;;8.83;100.00;98095.00;7390150;19;20086;-56
2022/11/07 11:30:04;;;;;;;486.10;436.45;;;;;;;8.98;100.00;98098.53;7389965;19;20006;-53
2022/11/07 11:32:45;;;;;;;488.77;436.95;;;;;;;8.96;100.00;98092.53;7381331;19;20011;-59
2022/11/07 11:35:42;;;;;;;486.13;435.73;;;;;;;8.87;100.00;98086.03;7385326;19;20013;-47
2022/11/07 11:38:25;;;;;;;484.95;433.63;;;;;;;8.80;100.00;98091.69;7389270;19;20010;-51
2022/11/07 11:41:05;;;;;;;496.13;444.30;;;;;;;8.65;100.00;98087.28;7387063;19;20028;-51
2022/11/07 11:43:47;;;;;;;486.55;435.58;;;;;;;8.84;100.00;98082.72;7387779;19;20253;-53
2022/11/07 11:46:31;;;;;;;498.50;447.55;;;;;;;9.18;100.00;98087.75;7387449;19;20019;-48
2022/11/07 11:49:17;;;;;;;483.73;433.02;;;;;;;8.82;100.00;98087.22;7389053;19;20031;-47
2022/11/07 11:51:55;;;;;;;493.67;441.85;;;;;;;8.87;100.00;98082.53;7378229;19;20087;-57
2022/11/07 11:54:32;;;;;;;498.55;446.60;;;;;;;9.10;100.00;98079.47;7381205;19;20003;-58